Terminal Aerodrome Forecast
Issued by NWS

Home | Current Version | Previous Version | Text Only | Print | Product List | Glossary Off
Versions: 1 2 3 4 5 6 7 8 9 10 11 12 13 14 15 16 17 18

000
FTUS43 KABR 220520
TAFPIR
TAF
KPIR 220520Z 2206/2306 33010KT P6SM SCT120
     FM220900 26008KT P6SM BKN130
     FM221700 30013KT P6SM SCT250
     FM230000 35011KT P6SM BKN060
     FM230300 01009KT P6SM BKN025=

USA.gov is the U.S. government's official web portal to all federal, state and local government web resources and services.